sensor_id;sensor_type;location;lat;lon;timestamp;temperature;humidity
73572;DHT22;61854;48.510;-2.770;2023-06-26T00:00:14;18.30;87.80
73572;DHT22;61854;48.510;-2.770;2023-06-26T00:02:40;18.20;88.20
73572;DHT22;61854;48.510;-2.770;2023-06-26T00:05:06;18.10;88.30
73572;DHT22;61854;48.510;-2.770;2023-06-26T00:07:31;18.10;88.20
73572;DHT22;61854;48.510;-2.770;2023-06-26T00:09:59;18.10;88.20
73572;DHT22;61854;48.510;-2.770;2023-06-26T00:12:25;18.20;88.10
73572;DHT22;61854;48.510;-2.770;2023-06-26T00:14:51;18.10;88.00
73572;DHT22;61854;48.510;-2.770;2023-06-26T00:17:17;18.10;88.40
73572;DHT22;61854;48.510;-2.770;2023-06-26T00:19:43;18.00;88.60
73572;DHT22;61854;48.510;-2.770;2023-06-26T00:22:08;18.10;88.40
73572;DHT22;61854;48.510;-2.770;2023-06-26T00:24:34;18.10;88.10
73572;DHT22;61854;48.510;-2.770;2023-06-26T00:26:59;18.10;88.00
73572;DHT22;61854;48.510;-2.770;2023-06-26T00:29:25;18.10;87.60
73572;DHT22;61854;48.510;-2.770;2023-06-26T00:31:50;18.10;87.50
73572;DHT22;61854;48.510;-2.770;2023-06-26T00:34:16;18.00;88.10
73572;DHT22;61854;48.510;-2.770;2023-06-26T00:36:41;18.00;88.10
73572;DHT22;61854;48.510;-2.770;2023-06-26T00:39:10;18.00;88.80
73572;DHT22;61854;48.510;-2.770;2023-06-26T00:41:36;18.00;87.80
73572;DHT22;61854;48.510;-2.770;2023-06-26T00:44:02;18.00;88.10
73572;DHT22;61854;48.510;-2.770;2023-06-26T00:46:27;17.90;88.00
73572;DHT22;61854;48.510;-2.770;2023-06-26T00:48:53;18.00;87.90
73572;DHT22;61854;48.510;-2.770;2023-06-26T00:51:19;17.90;88.00
73572;DHT22;61854;48.510;-2.770;2023-06-26T00:53:45;17.90;89.30
73572;DHT22;61854;48.510;-2.770;2023-06-26T00:56:10;17.80;88.30
73572;DHT22;61854;48.510;-2.770;2023-06-26T00:58:36;17.80;88.80
73572;DHT22;61854;48.510;-2.770;2023-06-26T01:01:02;17.80;89.00
73572;DHT22;61854;48.510;-2.770;2023-06-26T01:03:28;17.70;88.90
73572;DHT22;61854;48.510;-2.770;2023-06-26T01:05:55;17.70;88.80
73572;DHT22;61854;48.510;-2.770;2023-06-26T01:08:21;17.70;89.00
73572;DHT22;61854;48.510;-2.770;2023-06-26T01:10:47;17.70;88.80
73572;DHT22;61854;48.510;-2.770;2023-06-26T01:13:13;17.70;89.30
73572;DHT22;61854;48.510;-2.770;2023-06-26T01:15:40;17.70;89.00
73572;DHT22;61854;48.510;-2.770;2023-06-26T01:18:05;17.60;89.30
73572;DHT22;61854;48.510;-2.770;2023-06-26T01:20:31;17.60;89.10
73572;DHT22;61854;48.510;-2.770;2023-06-26T01:25:43;17.60;89.30
73572;DHT22;61854;48.510;-2.770;2023-06-26T01:28:14;17.50;89.70
73572;DHT22;61854;48.510;-2.770;2023-06-26T01:30:42;17.50;89.50
73572;DHT22;61854;48.510;-2.770;2023-06-26T01:33:09;17.50;89.30
73572;DHT22;61854;48.510;-2.770;2023-06-26T01:35:35;17.50;89.60
73572;DHT22;61854;48.510;-2.770;2023-06-26T01:38:16;17.40;89.90
73572;DHT22;61854;48.510;-2.770;2023-06-26T01:40:42;17.40;90.10
73572;DHT22;61854;48.510;-2.770;2023-06-26T01:45:56;17.30;90.40
73572;DHT22;61854;48.510;-2.770;2023-06-26T01:48:25;17.30;90.50
73572;DHT22;61854;48.510;-2.770;2023-06-26T01:50:52;17.30;90.40
73572;DHT22;61854;48.510;-2.770;2023-06-26T01:53:19;17.20;90.60
73572;DHT22;61854;48.510;-2.770;2023-06-26T01:55:59;17.20;90.60
73572;DHT22;61854;48.510;-2.770;2023-06-26T01:58:25;17.10;91.30
73572;DHT22;61854;48.510;-2.770;2023-06-26T02:00:51;17.10;90.80
73572;DHT22;61854;48.510;-2.770;2023-06-26T02:03:17;17.10;90.90
73572;DHT22;61854;48.510;-2.770;2023-06-26T02:05:43;17.00;91.10
73572;DHT22;61854;48.510;-2.770;2023-06-26T02:08:10;17.10;90.90
73572;DHT22;61854;48.510;-2.770;2023-06-26T02:10:35;17.10;90.90
73572;DHT22;61854;48.510;-2.770;2023-06-26T02:13:01;17.00;90.90
73572;DHT22;61854;48.510;-2.770;2023-06-26T02:15:27;17.00;91.00
73572;DHT22;61854;48.510;-2.770;2023-06-26T02:17:52;17.00;91.00
73572;DHT22;61854;48.510;-2.770;2023-06-26T02:20:17;16.90;91.00
73572;DHT22;61854;48.510;-2.770;2023-06-26T02:22:43;16.90;91.10
73572;DHT22;61854;48.510;-2.770;2023-06-26T02:25:09;16.90;91.20
73572;DHT22;61854;48.510;-2.770;2023-06-26T02:27:35;16.80;91.30
73572;DHT22;61854;48.510;-2.770;2023-06-26T02:30:00;16.90;91.30
73572;DHT22;61854;48.510;-2.770;2023-06-26T02:32:26;16.80;91.30
73572;DHT22;61854;48.510;-2.770;2023-06-26T02:34:51;16.80;91.30
73572;DHT22;61854;48.510;-2.770;2023-06-26T02:37:17;16.80;91.20
73572;DHT22;61854;48.510;-2.770;2023-06-26T02:39:43;16.70;91.40
73572;DHT22;61854;48.510;-2.770;2023-06-26T02:42:08;16.80;91.90
73572;DHT22;61854;48.510;-2.770;2023-06-26T02:44:34;16.80;91.30
73572;DHT22;61854;48.510;-2.770;2023-06-26T02:46:59;16.80;91.20
73572;DHT22;61854;48.510;-2.770;2023-06-26T02:49:25;16.70;91.20
73572;DHT22;61854;48.510;-2.770;2023-06-26T02:51:50;16.80;91.20
73572;DHT22;61854;48.510;-2.770;2023-06-26T02:54:16;16.60;91.40
73572;DHT22;61854;48.510;-2.770;2023-06-26T02:56:41;16.70;91.40
73572;DHT22;61854;48.510;-2.770;2023-06-26T02:59:08;16.70;91.40
73572;DHT22;61854;48.510;-2.770;2023-06-26T03:01:36;16.60;91.50
73572;DHT22;61854;48.510;-2.770;2023-06-26T03:04:01;16.60;91.50
73572;DHT22;61854;48.510;-2.770;2023-06-26T03:06:27;16.60;91.50
73572;DHT22;61854;48.510;-2.770;2023-06-26T03:08:53;16.70;91.30
73572;DHT22;61854;48.510;-2.770;2023-06-26T03:11:18;16.70;91.10
73572;DHT22;61854;48.510;-2.770;2023-06-26T03:13:44;16.60;91.40
73572;DHT22;61854;48.510;-2.770;2023-06-26T03:16:09;16.60;91.50
73572;DHT22;61854;48.510;-2.770;2023-06-26T03:18:35;16.60;91.50
73572;DHT22;61854;48.510;-2.770;2023-06-26T03:21:00;16.60;91.50
73572;DHT22;61854;48.510;-2.770;2023-06-26T03:23:26;16.60;91.50
73572;DHT22;61854;48.510;-2.770;2023-06-26T03:25:52;16.60;91.40
73572;DHT22;61854;48.510;-2.770;2023-06-26T03:28:17;16.60;91.50
73572;DHT22;61854;48.510;-2.770;2023-06-26T03:30:43;16.50;91.60
73572;DHT22;61854;48.510;-2.770;2023-06-26T03:33:08;16.40;91.80
73572;DHT22;61854;48.510;-2.770;2023-06-26T03:35:34;16.40;91.70
73572;DHT22;61854;48.510;-2.770;2023-06-26T03:37:59;16.40;91.80
73572;DHT22;61854;48.510;-2.770;2023-06-26T03:40:26;16.30;92.20
73572;DHT22;61854;48.510;-2.770;2023-06-26T03:42:51;16.40;91.90
73572;DHT22;61854;48.510;-2.770;2023-06-26T03:45:17;16.40;91.90
73572;DHT22;61854;48.510;-2.770;2023-06-26T03:47:42;16.40;91.80
73572;DHT22;61854;48.510;-2.770;2023-06-26T03:50:08;16.40;91.90
73572;DHT22;61854;48.510;-2.770;2023-06-26T03:52:34;16.30;92.00
73572;DHT22;61854;48.510;-2.770;2023-06-26T03:55:00;16.20;92.20
73572;DHT22;61854;48.510;-2.770;2023-06-26T03:57:25;16.30;92.10
73572;DHT22;61854;48.510;-2.770;2023-06-26T03:59:51;16.40;92.00
73572;DHT22;61854;48.510;-2.770;2023-06-26T04:02:17;16.40;92.10
73572;DHT22;61854;48.510;-2.770;2023-06-26T04:04:42;16.40;92.00
73572;DHT22;61854;48.510;-2.770;2023-06-26T04:07:08;16.30;92.00
73572;DHT22;61854;48.510;-2.770;2023-06-26T04:09:34;16.30;92.00
73572;DHT22;61854;48.510;-2.770;2023-06-26T04:11:59;16.30;92.10
73572;DHT22;61854;48.510;-2.770;2023-06-26T04:14:25;16.40;92.00
73572;DHT22;61854;48.510;-2.770;2023-06-26T04:16:50;16.30;91.90
73572;DHT22;61854;48.510;-2.770;2023-06-26T04:19:16;16.40;91.90
73572;DHT22;61854;48.510;-2.770;2023-06-26T04:21:41;16.40;91.80
73572;DHT22;61854;48.510;-2.770;2023-06-26T04:24:07;16.40;91.80
73572;DHT22;61854;48.510;-2.770;2023-06-26T04:26:32;16.40;91.70
73572;DHT22;61854;48.510;-2.770;2023-06-26T04:28:58;16.40;91.70
73572;DHT22;61854;48.510;-2.770;2023-06-26T04:31:24;16.40;91.90
73572;DHT22;61854;48.510;-2.770;2023-06-26T04:33:50;16.30;91.80
73572;DHT22;61854;48.510;-2.770;2023-06-26T04:36:16;16.40;91.80
73572;DHT22;61854;48.510;-2.770;2023-06-26T04:38:42;16.40;91.70
73572;DHT22;61854;48.510;-2.770;2023-06-26T04:41:07;16.40;91.80
73572;DHT22;61854;48.510;-2.770;2023-06-26T04:43:33;16.40;91.80
73572;DHT22;61854;48.510;-2.770;2023-06-26T04:45:58;16.50;91.50
73572;DHT22;61854;48.510;-2.770;2023-06-26T04:48:24;16.50;91.60
73572;DHT22;61854;48.510;-2.770;2023-06-26T04:50:49;16.50;91.60
73572;DHT22;61854;48.510;-2.770;2023-06-26T04:53:22;16.60;91.50
73572;DHT22;61854;48.510;-2.770;2023-06-26T04:55:51;16.60;91.40
73572;DHT22;61854;48.510;-2.770;2023-06-26T04:58:17;16.50;91.50
73572;DHT22;61854;48.510;-2.770;2023-06-26T05:00:43;16.60;91.50
73572;DHT22;61854;48.510;-2.770;2023-06-26T05:03:11;16.60;91.50
73572;DHT22;61854;48.510;-2.770;2023-06-26T05:05:37;16.60;91.60
73572;DHT22;61854;48.510;-2.770;2023-06-26T05:08:22;16.60;91.50
73572;DHT22;61854;48.510;-2.770;2023-06-26T05:10:47;16.70;91.20
73572;DHT22;61854;48.510;-2.770;2023-06-26T05:13:13;16.70;91.30
73572;DHT22;61854;48.510;-2.770;2023-06-26T05:15:43;16.80;91.10
73572;DHT22;61854;48.510;-2.770;2023-06-26T05:18:09;16.80;91.10
73572;DHT22;61854;48.510;-2.770;2023-06-26T05:20:35;16.90;91.10
73572;DHT22;61854;48.510;-2.770;2023-06-26T05:23:01;16.90;91.10
73572;DHT22;61854;48.510;-2.770;2023-06-26T05:25:27;17.00;90.60
73572;DHT22;61854;48.510;-2.770;2023-06-26T05:27:54;17.10;90.70
73572;DHT22;61854;48.510;-2.770;2023-06-26T05:30:20;17.20;90.40
73572;DHT22;61854;48.510;-2.770;2023-06-26T05:32:46;17.20;90.40
73572;DHT22;61854;48.510;-2.770;2023-06-26T05:35:12;17.20;90.40
73572;DHT22;61854;48.510;-2.770;2023-06-26T05:37:38;17.30;90.40
73572;DHT22;61854;48.510;-2.770;2023-06-26T05:40:04;17.40;90.30
73572;DHT22;61854;48.510;-2.770;2023-06-26T05:42:30;17.50;90.00
73572;DHT22;61854;48.510;-2.770;2023-06-26T05:44:56;17.50;90.10
73572;DHT22;61854;48.510;-2.770;2023-06-26T05:47:22;17.60;89.90
73572;DHT22;61854;48.510;-2.770;2023-06-26T05:49:47;17.50;90.00
73572;DHT22;61854;48.510;-2.770;2023-06-26T05:52:13;17.60;90.30
73572;DHT22;61854;48.510;-2.770;2023-06-26T05:54:39;17.60;89.90
73572;DHT22;61854;48.510;-2.770;2023-06-26T05:57:04;17.70;89.60
73572;DHT22;61854;48.510;-2.770;2023-06-26T05:59:33;17.60;89.70
73572;DHT22;61854;48.510;-2.770;2023-06-26T06:02:01;17.60;89.90
73572;DHT22;61854;48.510;-2.770;2023-06-26T06:04:27;17.50;90.10
73572;DHT22;61854;48.510;-2.770;2023-06-26T06:06:52;17.60;90.00
73572;DHT22;61854;48.510;-2.770;2023-06-26T06:09:18;17.60;90.20
73572;DHT22;61854;48.510;-2.770;2023-06-26T06:11:43;17.70;90.00
73572;DHT22;61854;48.510;-2.770;2023-06-26T06:14:09;17.70;89.80
73572;DHT22;61854;48.510;-2.770;2023-06-26T06:16:34;17.80;89.80
73572;DHT22;61854;48.510;-2.770;2023-06-26T06:19:00;17.80;89.60
73572;DHT22;61854;48.510;-2.770;2023-06-26T06:21:25;17.90;89.80
73572;DHT22;61854;48.510;-2.770;2023-06-26T06:23:51;18.00;89.10
73572;DHT22;61854;48.510;-2.770;2023-06-26T06:26:16;18.00;89.30
73572;DHT22;61854;48.510;-2.770;2023-06-26T06:28:42;18.00;89.10
73572;DHT22;61854;48.510;-2.770;2023-06-26T06:31:07;18.10;89.00
73572;DHT22;61854;48.510;-2.770;2023-06-26T06:33:33;18.10;88.90
73572;DHT22;61854;48.510;-2.770;2023-06-26T06:35:59;18.10;89.00
73572;DHT22;61854;48.510;-2.770;2023-06-26T06:38:25;18.20;87.30
73572;DHT22;61854;48.510;-2.770;2023-06-26T06:40:50;18.20;88.10
73572;DHT22;61854;48.510;-2.770;2023-06-26T06:43:21;18.20;87.10
73572;DHT22;61854;48.510;-2.770;2023-06-26T06:45:49;18.30;86.10
73572;DHT22;61854;48.510;-2.770;2023-06-26T06:48:14;18.50;84.10
73572;DHT22;61854;48.510;-2.770;2023-06-26T06:50:40;18.40;84.90
73572;DHT22;61854;48.510;-2.770;2023-06-26T06:53:06;18.50;83.70
73572;DHT22;61854;48.510;-2.770;2023-06-26T06:55:32;18.40;82.50
73572;DHT22;61854;48.510;-2.770;2023-06-26T06:57:57;18.50;83.00
73572;DHT22;61854;48.510;-2.770;2023-06-26T07:00:23;18.50;83.10
73572;DHT22;61854;48.510;-2.770;2023-06-26T07:02:49;18.70;82.10
73572;DHT22;61854;48.510;-2.770;2023-06-26T07:05:14;18.70;81.40
73572;DHT22;61854;48.510;-2.770;2023-06-26T07:07:40;18.70;81.40
73572;DHT22;61854;48.510;-2.770;2023-06-26T07:10:07;18.70;82.30
73572;DHT22;61854;48.510;-2.770;2023-06-26T07:12:33;18.90;81.40
73572;DHT22;61854;48.510;-2.770;2023-06-26T07:14:59;18.80;80.80
73572;DHT22;61854;48.510;-2.770;2023-06-26T07:17:25;18.80;80.60
73572;DHT22;61854;48.510;-2.770;2023-06-26T07:19:51;18.80;80.20
73572;DHT22;61854;48.510;-2.770;2023-06-26T07:22:16;18.70;80.90
73572;DHT22;61854;48.510;-2.770;2023-06-26T07:24:44;19.00;79.60
73572;DHT22;61854;48.510;-2.770;2023-06-26T07:27:09;19.00;79.10
73572;DHT22;61854;48.510;-2.770;2023-06-26T07:29:35;18.90;76.70
73572;DHT22;61854;48.510;-2.770;2023-06-26T07:32:00;18.90;77.70
73572;DHT22;61854;48.510;-2.770;2023-06-26T07:34:26;18.90;76.90
73572;DHT22;61854;48.510;-2.770;2023-06-26T07:36:52;18.80;76.50
73572;DHT22;61854;48.510;-2.770;2023-06-26T07:39:18;19.00;77.20
73572;DHT22;61854;48.510;-2.770;2023-06-26T07:41:43;18.90;78.00
73572;DHT22;61854;48.510;-2.770;2023-06-26T07:44:09;18.90;77.80
73572;DHT22;61854;48.510;-2.770;2023-06-26T07:46:35;18.90;77.10
73572;DHT22;61854;48.510;-2.770;2023-06-26T07:49:00;19.00;77.40
73572;DHT22;61854;48.510;-2.770;2023-06-26T07:51:26;19.10;75.40
73572;DHT22;61854;48.510;-2.770;2023-06-26T07:53:51;19.20;73.60
73572;DHT22;61854;48.510;-2.770;2023-06-26T07:56:17;19.30;73.60
73572;DHT22;61854;48.510;-2.770;2023-06-26T07:58:43;19.20;71.80
73572;DHT22;61854;48.510;-2.770;2023-06-26T08:01:08;19.00;73.90
73572;DHT22;61854;48.510;-2.770;2023-06-26T08:03:34;18.90;72.60
73572;DHT22;61854;48.510;-2.770;2023-06-26T08:05:59;19.20;73.40
73572;DHT22;61854;48.510;-2.770;2023-06-26T08:08:25;19.20;72.60
73572;DHT22;61854;48.510;-2.770;2023-06-26T08:10:51;19.30;71.20
73572;DHT22;61854;48.510;-2.770;2023-06-26T08:13:16;19.20;71.90
73572;DHT22;61854;48.510;-2.770;2023-06-26T08:15:41;19.50;69.80
73572;DHT22;61854;48.510;-2.770;2023-06-26T08:18:07;19.50;66.10
73572;DHT22;61854;48.510;-2.770;2023-06-26T08:20:33;19.70;67.40
73572;DHT22;61854;48.510;-2.770;2023-06-26T08:23:01;19.70;66.50
73572;DHT22;61854;48.510;-2.770;2023-06-26T08:25:26;19.80;66.80
73572;DHT22;61854;48.510;-2.770;2023-06-26T08:27:52;19.50;67.90
73572;DHT22;61854;48.510;-2.770;2023-06-26T08:30:19;19.70;66.30
73572;DHT22;61854;48.510;-2.770;2023-06-26T08:32:44;19.80;66.50
73572;DHT22;61854;48.510;-2.770;2023-06-26T08:35:10;19.80;66.10
73572;DHT22;61854;48.510;-2.770;2023-06-26T08:37:35;19.70;65.60
73572;DHT22;61854;48.510;-2.770;2023-06-26T08:40:01;19.60;64.10
73572;DHT22;61854;48.510;-2.770;2023-06-26T08:42:27;19.90;63.70
73572;DHT22;61854;48.510;-2.770;2023-06-26T08:44:52;19.90;65.60
73572;DHT22;61854;48.510;-2.770;2023-06-26T08:47:18;20.00;61.30
73572;DHT22;61854;48.510;-2.770;2023-06-26T08:49:48;20.30;62.80
73572;DHT22;61854;48.510;-2.770;2023-06-26T08:52:24;20.10;63.30
73572;DHT22;61854;48.510;-2.770;2023-06-26T08:54:57;20.20;63.80
73572;DHT22;61854;48.510;-2.770;2023-06-26T08:57:23;20.40;61.80
73572;DHT22;61854;48.510;-2.770;2023-06-26T08:59:50;20.50;60.80
73572;DHT22;61854;48.510;-2.770;2023-06-26T09:02:16;20.40;60.20
73572;DHT22;61854;48.510;-2.770;2023-06-26T09:04:42;20.30;61.60
73572;DHT22;61854;48.510;-2.770;2023-06-26T09:07:07;20.40;63.80
73572;DHT22;61854;48.510;-2.770;2023-06-26T09:09:33;20.40;60.80
73572;DHT22;61854;48.510;-2.770;2023-06-26T09:11:59;20.30;60.90
73572;DHT22;61854;48.510;-2.770;2023-06-26T09:14:24;20.30;59.00
73572;DHT22;61854;48.510;-2.770;2023-06-26T09:16:50;20.60;59.80
73572;DHT22;61854;48.510;-2.770;2023-06-26T09:19:15;20.60;54.30
73572;DHT22;61854;48.510;-2.770;2023-06-26T09:21:42;20.70;55.70
73572;DHT22;61854;48.510;-2.770;2023-06-26T09:24:08;20.90;56.90
73572;DHT22;61854;48.510;-2.770;2023-06-26T09:26:37;20.60;57.00
73572;DHT22;61854;48.510;-2.770;2023-06-26T09:29:03;20.60;59.60
73572;DHT22;61854;48.510;-2.770;2023-06-26T09:31:29;20.40;60.20
73572;DHT22;61854;48.510;-2.770;2023-06-26T09:33:57;20.60;59.00
73572;DHT22;61854;48.510;-2.770;2023-06-26T09:36:23;20.60;60.20
73572;DHT22;61854;48.510;-2.770;2023-06-26T09:38:50;20.80;58.00
73572;DHT22;61854;48.510;-2.770;2023-06-26T09:41:18;21.00;58.30
73572;DHT22;61854;48.510;-2.770;2023-06-26T09:43:50;21.10;53.90
73572;DHT22;61854;48.510;-2.770;2023-06-26T09:46:16;21.00;55.40
73572;DHT22;61854;48.510;-2.770;2023-06-26T09:48:43;20.60;56.50
73572;DHT22;61854;48.510;-2.770;2023-06-26T09:51:09;20.60;56.60
73572;DHT22;61854;48.510;-2.770;2023-06-26T09:53:35;20.70;58.10
73572;DHT22;61854;48.510;-2.770;2023-06-26T09:56:07;20.90;57.00
73572;DHT22;61854;48.510;-2.770;2023-06-26T09:58:36;21.40;55.40
73572;DHT22;61854;48.510;-2.770;2023-06-26T10:01:02;20.90;55.50
73572;DHT22;61854;48.510;-2.770;2023-06-26T10:03:27;21.00;54.80
73572;DHT22;61854;48.510;-2.770;2023-06-26T10:05:53;21.00;55.30
73572;DHT22;61854;48.510;-2.770;2023-06-26T10:08:18;20.80;55.40
73572;DHT22;61854;48.510;-2.770;2023-06-26T10:10:44;20.90;54.60
73572;DHT22;61854;48.510;-2.770;2023-06-26T10:13:13;21.20;56.00
73572;DHT22;61854;48.510;-2.770;2023-06-26T10:15:40;21.20;56.80
73572;DHT22;61854;48.510;-2.770;2023-06-26T10:18:07;21.00;56.10
73572;DHT22;61854;48.510;-2.770;2023-06-26T10:20:33;21.10;57.30
73572;DHT22;61854;48.510;-2.770;2023-06-26T10:22:59;21.40;55.10
73572;DHT22;61854;48.510;-2.770;2023-06-26T10:25:26;21.40;53.40
73572;DHT22;61854;48.510;-2.770;2023-06-26T10:27:57;21.20;55.20
73572;DHT22;61854;48.510;-2.770;2023-06-26T10:30:25;21.20;53.90
73572;DHT22;61854;48.510;-2.770;2023-06-26T10:32:52;21.20;53.80
73572;DHT22;61854;48.510;-2.770;2023-06-26T10:35:18;21.20;53.30
73572;DHT22;61854;48.510;-2.770;2023-06-26T10:37:44;21.10;51.10
73572;DHT22;61854;48.510;-2.770;2023-06-26T10:40:10;21.30;51.30
73572;DHT22;61854;48.510;-2.770;2023-06-26T10:42:37;21.40;52.30
73572;DHT22;61854;48.510;-2.770;2023-06-26T10:45:09;21.70;51.20
73572;DHT22;61854;48.510;-2.770;2023-06-26T10:47:36;21.60;52.40
73572;DHT22;61854;48.510;-2.770;2023-06-26T10:50:23;21.60;53.00
73572;DHT22;61854;48.510;-2.770;2023-06-26T10:55:32;22.20;47.80
73572;DHT22;61854;48.510;-2.770;2023-06-26T10:57:58;21.80;57.40
73572;DHT22;61854;48.510;-2.770;2023-06-26T11:00:23;21.70;61.20
73572;DHT22;61854;48.510;-2.770;2023-06-26T11:02:49;22.00;61.10
73572;DHT22;61854;48.510;-2.770;2023-06-26T11:05:26;22.00;62.10
73572;DHT22;61854;48.510;-2.770;2023-06-26T11:08:05;21.70;62.00
73572;DHT22;61854;48.510;-2.770;2023-06-26T11:11:13;21.90;63.00
73572;DHT22;61854;48.510;-2.770;2023-06-26T11:13:21;22.00;60.50
73572;DHT22;61854;48.510;-2.770;2023-06-26T11:15:47;22.10;62.40
73572;DHT22;61854;48.510;-2.770;2023-06-26T11:18:13;22.40;62.50
73572;DHT22;61854;48.510;-2.770;2023-06-26T11:20:40;22.10;62.00
73572;DHT22;61854;48.510;-2.770;2023-06-26T11:23:05;22.20;58.30
73572;DHT22;61854;48.510;-2.770;2023-06-26T11:25:34;22.70;57.50
73572;DHT22;61854;48.510;-2.770;2023-06-26T11:28:00;22.50;58.10
73572;DHT22;61854;48.510;-2.770;2023-06-26T11:30:26;22.90;55.50
73572;DHT22;61854;48.510;-2.770;2023-06-26T11:32:51;22.70;55.80
73572;DHT22;61854;48.510;-2.770;2023-06-26T11:35:23;22.60;57.90
73572;DHT22;61854;48.510;-2.770;2023-06-26T11:37:58;22.80;56.00
73572;DHT22;61854;48.510;-2.770;2023-06-26T11:40:33;22.50;56.80
73572;DHT22;61854;48.510;-2.770;2023-06-26T11:42:59;22.60;57.10
73572;DHT22;61854;48.510;-2.770;2023-06-26T11:45:28;23.00;55.90
73572;DHT22;61854;48.510;-2.770;2023-06-26T11:47:54;23.00;56.60
73572;DHT22;61854;48.510;-2.770;2023-06-26T11:50:20;23.20;56.50
73572;DHT22;61854;48.510;-2.770;2023-06-26T11:52:46;23.40;56.20
73572;DHT22;61854;48.510;-2.770;2023-06-26T11:55:17;23.40;57.30
73572;DHT22;61854;48.510;-2.770;2023-06-26T11:57:47;23.60;56.10
73572;DHT22;61854;48.510;-2.770;2023-06-26T12:00:14;23.70;54.10
73572;DHT22;61854;48.510;-2.770;2023-06-26T12:02:40;23.10;55.90
73572;DHT22;61854;48.510;-2.770;2023-06-26T12:05:06;23.30;55.50
73572;DHT22;61854;48.510;-2.770;2023-06-26T12:07:32;22.80;57.30
73572;DHT22;61854;48.510;-2.770;2023-06-26T12:09:59;22.80;56.50
73572;DHT22;61854;48.510;-2.770;2023-06-26T12:12:27;22.60;57.40
73572;DHT22;61854;48.510;-2.770;2023-06-26T12:14:53;22.70;57.20
73572;DHT22;61854;48.510;-2.770;2023-06-26T12:17:21;22.90;56.80
73572;DHT22;61854;48.510;-2.770;2023-06-26T12:19:47;23.20;56.50
73572;DHT22;61854;48.510;-2.770;2023-06-26T12:22:13;23.10;55.30
73572;DHT22;61854;48.510;-2.770;2023-06-26T12:24:39;22.90;56.80
73572;DHT22;61854;48.510;-2.770;2023-06-26T12:27:14;23.30;55.20
73572;DHT22;61854;48.510;-2.770;2023-06-26T12:29:41;23.20;54.50
73572;DHT22;61854;48.510;-2.770;2023-06-26T12:32:10;23.40;54.30
73572;DHT22;61854;48.510;-2.770;2023-06-26T12:34:36;23.70;53.10
73572;DHT22;61854;48.510;-2.770;2023-06-26T12:37:03;23.50;52.30
73572;DHT22;61854;48.510;-2.770;2023-06-26T12:39:29;23.40;54.60
73572;DHT22;61854;48.510;-2.770;2023-06-26T12:41:57;23.40;52.90
73572;DHT22;61854;48.510;-2.770;2023-06-26T12:44:29;23.80;53.10
73572;DHT22;61854;48.510;-2.770;2023-06-26T12:47:02;23.00;54.60
73572;DHT22;61854;48.510;-2.770;2023-06-26T12:49:34;23.40;53.80
73572;DHT22;61854;48.510;-2.770;2023-06-26T12:52:00;23.20;54.80
73572;DHT22;61854;48.510;-2.770;2023-06-26T12:54:26;23.20;54.80
73572;DHT22;61854;48.510;-2.770;2023-06-26T12:56:52;23.20;54.70
73572;DHT22;61854;48.510;-2.770;2023-06-26T12:59:18;23.30;55.10
73572;DHT22;61854;48.510;-2.770;2023-06-26T13:01:43;23.20;54.70
73572;DHT22;61854;48.510;-2.770;2023-06-26T13:04:09;23.50;54.00
73572;DHT22;61854;48.510;-2.770;2023-06-26T13:06:35;23.70;53.40
73572;DHT22;61854;48.510;-2.770;2023-06-26T13:09:01;24.40;50.70
73572;DHT22;61854;48.510;-2.770;2023-06-26T13:11:30;24.50;49.00
73572;DHT22;61854;48.510;-2.770;2023-06-26T13:13:55;23.80;51.40
73572;DHT22;61854;48.510;-2.770;2023-06-26T13:16:21;25.20;48.60
73572;DHT22;61854;48.510;-2.770;2023-06-26T13:18:46;23.80;51.00
73572;DHT22;61854;48.510;-2.770;2023-06-26T13:21:12;24.10;50.90
73572;DHT22;61854;48.510;-2.770;2023-06-26T13:23:38;24.20;49.70
73572;DHT22;61854;48.510;-2.770;2023-06-26T13:26:04;25.00;49.70
73572;DHT22;61854;48.510;-2.770;2023-06-26T13:28:30;24.90;48.30
73572;DHT22;61854;48.510;-2.770;2023-06-26T13:30:55;25.60;46.40
73572;DHT22;61854;48.510;-2.770;2023-06-26T13:33:21;24.40;50.40
73572;DHT22;61854;48.510;-2.770;2023-06-26T13:35:46;25.40;48.10
73572;DHT22;61854;48.510;-2.770;2023-06-26T13:38:12;25.40;46.70
73572;DHT22;61854;48.510;-2.770;2023-06-26T13:40:38;25.20;46.90
73572;DHT22;61854;48.510;-2.770;2023-06-26T13:43:03;26.00;44.40
73572;DHT22;61854;48.510;-2.770;2023-06-26T13:45:29;26.00;43.30
73572;DHT22;61854;48.510;-2.770;2023-06-26T13:47:54;26.40;44.50
73572;DHT22;61854;48.510;-2.770;2023-06-26T13:50:20;25.90;43.80
73572;DHT22;61854;48.510;-2.770;2023-06-26T13:52:45;25.70;46.10
73572;DHT22;61854;48.510;-2.770;2023-06-26T13:55:11;25.40;46.00
73572;DHT22;61854;48.510;-2.770;2023-06-26T13:57:36;25.00;46.90
73572;DHT22;61854;48.510;-2.770;2023-06-26T14:00:07;25.60;47.90
73572;DHT22;61854;48.510;-2.770;2023-06-26T14:02:33;25.40;46.30
73572;DHT22;61854;48.510;-2.770;2023-06-26T14:04:58;25.30;47.30
73572;DHT22;61854;48.510;-2.770;2023-06-26T14:07:24;25.60;47.30
73572;DHT22;61854;48.510;-2.770;2023-06-26T14:09:50;25.50;47.10
73572;DHT22;61854;48.510;-2.770;2023-06-26T14:12:15;26.00;46.00
73572;DHT22;61854;48.510;-2.770;2023-06-26T14:14:41;26.00;45.50
73572;DHT22;61854;48.510;-2.770;2023-06-26T14:17:07;26.10;45.80
73572;DHT22;61854;48.510;-2.770;2023-06-26T14:19:34;26.00;45.70
73572;DHT22;61854;48.510;-2.770;2023-06-26T14:22:00;25.60;46.80
73572;DHT22;61854;48.510;-2.770;2023-06-26T14:24:26;25.70;47.90
73572;DHT22;61854;48.510;-2.770;2023-06-26T14:26:52;26.30;45.10
73572;DHT22;61854;48.510;-2.770;2023-06-26T14:29:17;26.50;44.30
73572;DHT22;61854;48.510;-2.770;2023-06-26T14:31:44;25.70;45.50
73572;DHT22;61854;48.510;-2.770;2023-06-26T14:34:10;25.80;47.10
73572;DHT22;61854;48.510;-2.770;2023-06-26T14:36:35;25.60;45.20
73572;DHT22;61854;48.510;-2.770;2023-06-26T14:39:02;24.60;48.30
73572;DHT22;61854;48.510;-2.770;2023-06-26T14:41:29;24.90;49.10
73572;DHT22;61854;48.510;-2.770;2023-06-26T14:43:55;25.10;46.90
73572;DHT22;61854;48.510;-2.770;2023-06-26T14:46:20;24.90;49.10
73572;DHT22;61854;48.510;-2.770;2023-06-26T14:48:46;24.30;52.00
73572;DHT22;61854;48.510;-2.770;2023-06-26T14:51:11;24.20;52.00
73572;DHT22;61854;48.510;-2.770;2023-06-26T14:53:37;24.40;52.40
73572;DHT22;61854;48.510;-2.770;2023-06-26T14:56:02;24.50;51.60
73572;DHT22;61854;48.510;-2.770;2023-06-26T14:58:28;24.70;50.90
73572;DHT22;61854;48.510;-2.770;2023-06-26T15:00:53;25.20;49.60
73572;DHT22;61854;48.510;-2.770;2023-06-26T15:03:19;25.60;48.30
73572;DHT22;61854;48.510;-2.770;2023-06-26T15:05:44;24.80;51.30
73572;DHT22;61854;48.510;-2.770;2023-06-26T15:08:10;24.00;52.50
73572;DHT22;61854;48.510;-2.770;2023-06-26T15:10:36;24.10;51.40
73572;DHT22;61854;48.510;-2.770;2023-06-26T15:13:01;24.00;52.60
73572;DHT22;61854;48.510;-2.770;2023-06-26T15:15:27;23.90;53.50
73572;DHT22;61854;48.510;-2.770;2023-06-26T15:17:53;23.40;55.80